sensor_id;sensor_type;location;lat;lon;timestamp;P1;durP1;ratioP1;P2;durP2;ratioP2
28625;SDS011;18905;42.668;23.364;2023-06-05T00:01:42;14.93;;;12.02;;
28625;SDS011;18905;42.668;23.364;2023-06-05T00:04:07;21.15;;;11.48;;
28625;SDS011;18905;42.668;23.364;2023-06-05T00:06:33;16.88;;;11.85;;
28625;SDS011;18905;42.668;23.364;2023-06-05T00:08:58;24.73;;;12.93;;
28625;SDS011;18905;42.668;23.364;2023-06-05T00:11:24;23.75;;;13.23;;
28625;SDS011;18905;42.668;23.364;2023-06-05T00:13:50;16.00;;;12.20;;
28625;SDS011;18905;42.668;23.364;2023-06-05T00:16:16;17.73;;;12.95;;
28625;SDS011;18905;42.668;23.364;2023-06-05T00:18:41;19.50;;;12.85;;
28625;SDS011;18905;42.668;23.364;2023-06-05T00:21:11;18.52;;;13.15;;
28625;SDS011;18905;42.668;23.364;2023-06-05T00:23:37;21.15;;;13.48;;
28625;SDS011;18905;42.668;23.364;2023-06-05T00:26:03;23.35;;;13.45;;
28625;SDS011;18905;42.668;23.364;2023-06-05T00:28:28;16.30;;;12.07;;
28625;SDS011;18905;42.668;23.364;2023-06-05T00:30:54;16.88;;;12.55;;
28625;SDS011;18905;42.668;23.364;2023-06-05T00:33:19;21.88;;;12.93;;
28625;SDS011;18905;42.668;23.364;2023-06-05T00:35:45;18.60;;;13.40;;
28625;SDS011;18905;42.668;23.364;2023-06-05T00:38:10;20.38;;;14.35;;
28625;SDS011;18905;42.668;23.364;2023-06-05T00:40:36;21.17;;;13.80;;
28625;SDS011;18905;42.668;23.364;2023-06-05T00:43:01;19.23;;;13.20;;
28625;SDS011;18905;42.668;23.364;2023-06-05T00:45:27;21.30;;;13.27;;
28625;SDS011;18905;42.668;23.364;2023-06-05T00:47:53;19.20;;;12.63;;
28625;SDS011;18905;42.668;23.364;2023-06-05T00:50:19;19.50;;;12.60;;
28625;SDS011;18905;42.668;23.364;2023-06-05T00:52:48;19.52;;;13.18;;
28625;SDS011;18905;42.668;23.364;2023-06-05T00:55:14;19.60;;;12.65;;
28625;SDS011;18905;42.668;23.364;2023-06-05T00:57:40;20.67;;;13.05;;
28625;SDS011;18905;42.668;23.364;2023-06-05T01:00:06;16.92;;;11.73;;
28625;SDS011;18905;42.668;23.364;2023-06-05T01:02:33;20.83;;;12.63;;
28625;SDS011;18905;42.668;23.364;2023-06-05T01:05:02;18.42;;;12.18;;
28625;SDS011;18905;42.668;23.364;2023-06-05T01:07:29;20.35;;;12.35;;
28625;SDS011;18905;42.668;23.364;2023-06-05T01:09:57;20.83;;;11.80;;
28625;SDS011;18905;42.668;23.364;2023-06-05T01:15:12;23.10;;;12.40;;
28625;SDS011;18905;42.668;23.364;2023-06-05T01:17:40;26.20;;;12.27;;
28625;SDS011;18905;42.668;23.364;2023-06-05T01:20:07;17.70;;;12.57;;
28625;SDS011;18905;42.668;23.364;2023-06-05T01:22:34;19.35;;;12.48;;
28625;SDS011;18905;42.668;23.364;2023-06-05T01:25:03;21.20;;;12.52;;
28625;SDS011;18905;42.668;23.364;2023-06-05T01:30:19;21.40;;;12.10;;
28625;SDS011;18905;42.668;23.364;2023-06-05T01:32:57;15.80;;;11.82;;
28625;SDS011;18905;42.668;23.364;2023-06-05T01:35:27;18.40;;;12.20;;
28625;SDS011;18905;42.668;23.364;2023-06-05T01:37:59;19.38;;;12.90;;
28625;SDS011;18905;42.668;23.364;2023-06-05T01:40:27;18.30;;;12.23;;
28625;SDS011;18905;42.668;23.364;2023-06-05T01:42:56;16.08;;;12.02;;
28625;SDS011;18905;42.668;23.364;2023-06-05T01:45:23;17.08;;;12.60;;
28625;SDS011;18905;42.668;23.364;2023-06-05T01:47:49;16.02;;;12.18;;
28625;SDS011;18905;42.668;23.364;2023-06-05T01:50:15;17.98;;;11.10;;
28625;SDS011;18905;42.668;23.364;2023-06-05T01:52:41;18.25;;;11.63;;
28625;SDS011;18905;42.668;23.364;2023-06-05T01:55:13;19.73;;;11.48;;
28625;SDS011;18905;42.668;23.364;2023-06-05T01:57:41;17.98;;;10.85;;
28625;SDS011;18905;42.668;23.364;2023-06-05T02:00:08;15.18;;;10.98;;
28625;SDS011;18905;42.668;23.364;2023-06-05T02:02:38;15.77;;;11.63;;
28625;SDS011;18905;42.668;23.364;2023-06-05T02:05:06;17.95;;;12.70;;
28625;SDS011;18905;42.668;23.364;2023-06-05T02:07:33;14.45;;;10.60;;
28625;SDS011;18905;42.668;23.364;2023-06-05T02:10:01;14.95;;;10.60;;
28625;SDS011;18905;42.668;23.364;2023-06-05T02:12:27;16.27;;;11.25;;
28625;SDS011;18905;42.668;23.364;2023-06-05T02:14:54;14.40;;;11.13;;
28625;SDS011;18905;42.668;23.364;2023-06-05T02:17:21;16.40;;;11.07;;
28625;SDS011;18905;42.668;23.364;2023-06-05T02:19:49;16.95;;;11.77;;
28625;SDS011;18905;42.668;23.364;2023-06-05T02:22:15;20.08;;;11.60;;
28625;SDS011;18905;42.668;23.364;2023-06-05T02:24:41;17.48;;;11.10;;
28625;SDS011;18905;42.668;23.364;2023-06-05T02:27:07;16.75;;;11.60;;
28625;SDS011;18905;42.668;23.364;2023-06-05T02:29:33;21.33;;;11.48;;
28625;SDS011;18905;42.668;23.364;2023-06-05T02:31:58;16.17;;;11.55;;
28625;SDS011;18905;42.668;23.364;2023-06-05T02:34:24;18.30;;;11.98;;
28625;SDS011;18905;42.668;23.364;2023-06-05T02:36:50;16.85;;;11.52;;
28625;SDS011;18905;42.668;23.364;2023-06-05T02:39:15;18.35;;;12.27;;
28625;SDS011;18905;42.668;23.364;2023-06-05T02:41:42;16.35;;;11.05;;
28625;SDS011;18905;42.668;23.364;2023-06-05T02:44:09;16.88;;;10.93;;
28625;SDS011;18905;42.668;23.364;2023-06-05T02:46:34;17.70;;;11.30;;
28625;SDS011;18905;42.668;23.364;2023-06-05T02:49:00;19.67;;;12.52;;
28625;SDS011;18905;42.668;23.364;2023-06-05T02:51:25;23.25;;;12.05;;
28625;SDS011;18905;42.668;23.364;2023-06-05T02:53:50;14.73;;;11.52;;
28625;SDS011;18905;42.668;23.364;2023-06-05T02:56:16;19.48;;;11.88;;
28625;SDS011;18905;42.668;23.364;2023-06-05T02:58:41;19.40;;;11.60;;
28625;SDS011;18905;42.668;23.364;2023-06-05T03:01:10;15.02;;;11.10;;
28625;SDS011;18905;42.668;23.364;2023-06-05T03:03:36;24.67;;;12.75;;
28625;SDS011;18905;42.668;23.364;2023-06-05T03:06:02;25.40;;;12.43;;
28625;SDS011;18905;42.668;23.364;2023-06-05T03:08:35;22.15;;;13.32;;
28625;SDS011;18905;42.668;23.364;2023-06-05T03:11:04;20.00;;;12.45;;
28625;SDS011;18905;42.668;23.364;2023-06-05T03:13:30;20.38;;;12.75;;
28625;SDS011;18905;42.668;23.364;2023-06-05T03:15:57;19.85;;;11.48;;
28625;SDS011;18905;42.668;23.364;2023-06-05T03:18:23;16.88;;;11.52;;
28625;SDS011;18905;42.668;23.364;2023-06-05T03:20:50;16.92;;;11.15;;
28625;SDS011;18905;42.668;23.364;2023-06-05T03:23:19;16.85;;;11.32;;
28625;SDS011;18905;42.668;23.364;2023-06-05T03:25:46;18.05;;;10.88;;
28625;SDS011;18905;42.668;23.364;2023-06-05T03:28:12;16.27;;;10.73;;
28625;SDS011;18905;42.668;23.364;2023-06-05T03:30:37;16.63;;;10.15;;
28625;SDS011;18905;42.668;23.364;2023-06-05T03:33:03;20.67;;;10.43;;
28625;SDS011;18905;42.668;23.364;2023-06-05T03:35:30;17.33;;;10.85;;
28625;SDS011;18905;42.668;23.364;2023-06-05T03:37:57;21.15;;;13.43;;
28625;SDS011;18905;42.668;23.364;2023-06-05T03:40:23;19.80;;;12.77;;
28625;SDS011;18905;42.668;23.364;2023-06-05T03:42:48;15.45;;;11.68;;
28625;SDS011;18905;42.668;23.364;2023-06-05T03:45:13;19.08;;;11.43;;
28625;SDS011;18905;42.668;23.364;2023-06-05T03:47:40;18.65;;;11.55;;
28625;SDS011;18905;42.668;23.364;2023-06-05T03:50:06;23.08;;;12.90;;
28625;SDS011;18905;42.668;23.364;2023-06-05T03:52:32;15.73;;;11.27;;
28625;SDS011;18905;42.668;23.364;2023-06-05T03:54:57;21.77;;;11.90;;
28625;SDS011;18905;42.668;23.364;2023-06-05T03:57:23;14.73;;;10.75;;
28625;SDS011;18905;42.668;23.364;2023-06-05T03:59:49;21.42;;;8.93;;
28625;SDS011;18905;42.668;23.364;2023-06-05T04:02:14;14.25;;;7.68;;
28625;SDS011;18905;42.668;23.364;2023-06-05T04:04:40;14.00;;;8.48;;
28625;SDS011;18905;42.668;23.364;2023-06-05T04:07:05;11.98;;;7.40;;
28625;SDS011;18905;42.668;23.364;2023-06-05T04:09:31;25.48;;;7.63;;
28625;SDS011;18905;42.668;23.364;2023-06-05T04:11:57;25.60;;;7.68;;
28625;SDS011;18905;42.668;23.364;2023-06-05T04:14:22;10.65;;;8.13;;
28625;SDS011;18905;42.668;23.364;2023-06-05T04:16:48;18.02;;;7.05;;
28625;SDS011;18905;42.668;23.364;2023-06-05T04:19:14;12.93;;;7.50;;
28625;SDS011;18905;42.668;23.364;2023-06-05T04:21:40;12.32;;;8.18;;
28625;SDS011;18905;42.668;23.364;2023-06-05T04:24:06;14.40;;;7.90;;
28625;SDS011;18905;42.668;23.364;2023-06-05T04:26:34;15.27;;;7.85;;
28625;SDS011;18905;42.668;23.364;2023-06-05T04:29:01;18.38;;;7.90;;
28625;SDS011;18905;42.668;23.364;2023-06-05T04:31:30;14.60;;;9.40;;
28625;SDS011;18905;42.668;23.364;2023-06-05T04:33:57;12.18;;;9.77;;
28625;SDS011;18905;42.668;23.364;2023-06-05T04:36:23;15.07;;;10.13;;
28625;SDS011;18905;42.668;23.364;2023-06-05T04:38:49;16.90;;;10.65;;
28625;SDS011;18905;42.668;23.364;2023-06-05T04:41:14;18.08;;;9.98;;
28625;SDS011;18905;42.668;23.364;2023-06-05T04:43:40;15.38;;;10.73;;
28625;SDS011;18905;42.668;23.364;2023-06-05T04:46:06;22.13;;;12.13;;
28625;SDS011;18905;42.668;23.364;2023-06-05T04:48:31;17.23;;;11.13;;
28625;SDS011;18905;42.668;23.364;2023-06-05T04:50:59;20.48;;;12.82;;
28625;SDS011;18905;42.668;23.364;2023-06-05T04:53:25;23.50;;;13.20;;
28625;SDS011;18905;42.668;23.364;2023-06-05T04:55:53;23.80;;;13.63;;
28625;SDS011;18905;42.668;23.364;2023-06-05T04:58:18;19.95;;;13.07;;
28625;SDS011;18905;42.668;23.364;2023-06-05T05:00:44;28.58;;;14.50;;
28625;SDS011;18905;42.668;23.364;2023-06-05T05:03:10;24.15;;;14.45;;
28625;SDS011;18905;42.668;23.364;2023-06-05T05:05:38;22.00;;;14.18;;
28625;SDS011;18905;42.668;23.364;2023-06-05T05:08:04;20.45;;;13.25;;
28625;SDS011;18905;42.668;23.364;2023-06-05T05:10:30;26.42;;;15.52;;
28625;SDS011;18905;42.668;23.364;2023-06-05T05:12:56;23.10;;;14.82;;
28625;SDS011;18905;42.668;23.364;2023-06-05T05:15:21;27.92;;;15.95;;
28625;SDS011;18905;42.668;23.364;2023-06-05T05:17:47;20.17;;;14.32;;
28625;SDS011;18905;42.668;23.364;2023-06-05T05:20:14;20.48;;;14.93;;
28625;SDS011;18905;42.668;23.364;2023-06-05T05:22:39;21.80;;;14.60;;
28625;SDS011;18905;42.668;23.364;2023-06-05T05:25:05;25.77;;;14.65;;
28625;SDS011;18905;42.668;23.364;2023-06-05T05:27:30;21.70;;;12.93;;
28625;SDS011;18905;42.668;23.364;2023-06-05T05:29:56;20.45;;;13.80;;
28625;SDS011;18905;42.668;23.364;2023-06-05T05:32:21;21.70;;;12.75;;
28625;SDS011;18905;42.668;23.364;2023-06-05T05:34:47;22.35;;;13.20;;
28625;SDS011;18905;42.668;23.364;2023-06-05T05:37:12;22.42;;;13.77;;
28625;SDS011;18905;42.668;23.364;2023-06-05T05:39:38;23.92;;;13.30;;
28625;SDS011;18905;42.668;23.364;2023-06-05T05:42:04;23.50;;;13.57;;
28625;SDS011;18905;42.668;23.364;2023-06-05T05:44:30;21.17;;;13.25;;
28625;SDS011;18905;42.668;23.364;2023-06-05T05:46:55;28.58;;;13.73;;
28625;SDS011;18905;42.668;23.364;2023-06-05T05:49:20;24.10;;;14.35;;
28625;SDS011;18905;42.668;23.364;2023-06-05T05:51:46;21.20;;;14.20;;
28625;SDS011;18905;42.668;23.364;2023-06-05T05:54:11;23.52;;;14.88;;
28625;SDS011;18905;42.668;23.364;2023-06-05T05:56:37;21.65;;;13.80;;
28625;SDS011;18905;42.668;23.364;2023-06-05T05:59:03;22.45;;;15.20;;
28625;SDS011;18905;42.668;23.364;2023-06-05T06:01:29;20.05;;;14.45;;
28625;SDS011;18905;42.668;23.364;2023-06-05T06:03:54;28.52;;;15.73;;
28625;SDS011;18905;42.668;23.364;2023-06-05T06:06:20;21.10;;;14.40;;
28625;SDS011;18905;42.668;23.364;2023-06-05T06:08:45;18.90;;;14.20;;
28625;SDS011;18905;42.668;23.364;2023-06-05T06:11:11;20.00;;;14.55;;
28625;SDS011;18905;42.668;23.364;2023-06-05T06:13:37;23.25;;;14.00;;
28625;SDS011;18905;42.668;23.364;2023-06-05T06:16:02;18.55;;;14.27;;
28625;SDS011;18905;42.668;23.364;2023-06-05T06:18:27;20.15;;;14.10;;
28625;SDS011;18905;42.668;23.364;2023-06-05T06:20:53;22.42;;;13.57;;
28625;SDS011;18905;42.668;23.364;2023-06-05T06:23:18;16.38;;;12.63;;
28625;SDS011;18905;42.668;23.364;2023-06-05T06:25:44;16.63;;;13.07;;
28625;SDS011;18905;42.668;23.364;2023-06-05T06:28:09;21.73;;;13.40;;
28625;SDS011;18905;42.668;23.364;2023-06-05T06:30:35;25.90;;;13.93;;
28625;SDS011;18905;42.668;23.364;2023-06-05T06:33:01;18.83;;;13.75;;
28625;SDS011;18905;42.668;23.364;2023-06-05T06:35:29;15.75;;;13.00;;
28625;SDS011;18905;42.668;23.364;2023-06-05T06:37:54;18.25;;;13.05;;
28625;SDS011;18905;42.668;23.364;2023-06-05T06:40:21;19.20;;;14.25;;
28625;SDS011;18905;42.668;23.364;2023-06-05T06:42:47;19.23;;;13.32;;
28625;SDS011;18905;42.668;23.364;2023-06-05T06:45:12;20.73;;;14.70;;
28625;SDS011;18905;42.668;23.364;2023-06-05T06:47:39;20.50;;;14.07;;
28625;SDS011;18905;42.668;23.364;2023-06-05T06:50:05;21.13;;;14.95;;
28625;SDS011;18905;42.668;23.364;2023-06-05T06:52:31;19.90;;;15.35;;
28625;SDS011;18905;42.668;23.364;2023-06-05T06:54:57;20.42;;;14.85;;
28625;SDS011;18905;42.668;23.364;2023-06-05T06:57:22;25.42;;;16.42;;
28625;SDS011;18905;42.668;23.364;2023-06-05T06:59:47;22.75;;;15.90;;
28625;SDS011;18905;42.668;23.364;2023-06-05T07:02:14;20.88;;;16.38;;
28625;SDS011;18905;42.668;23.364;2023-06-05T07:04:40;27.27;;;17.20;;
28625;SDS011;18905;42.668;23.364;2023-06-05T07:07:10;26.35;;;16.67;;
28625;SDS011;18905;42.668;23.364;2023-06-05T07:09:37;25.52;;;16.33;;
28625;SDS011;18905;42.668;23.364;2023-06-05T07:12:03;28.17;;;17.40;;
28625;SDS011;18905;42.668;23.364;2023-06-05T07:14:32;23.33;;;16.33;;
28625;SDS011;18905;42.668;23.364;2023-06-05T07:17:01;26.90;;;17.13;;
28625;SDS011;18905;42.668;23.364;2023-06-05T07:19:30;26.23;;;17.40;;
28625;SDS011;18905;42.668;23.364;2023-06-05T07:21:56;24.30;;;17.02;;
28625;SDS011;18905;42.668;23.364;2023-06-05T07:24:23;24.25;;;16.70;;
28625;SDS011;18905;42.668;23.364;2023-06-05T07:26:53;25.25;;;16.63;;
28625;SDS011;18905;42.668;23.364;2023-06-05T07:29:20;28.65;;;16.30;;
28625;SDS011;18905;42.668;23.364;2023-06-05T07:31:47;24.83;;;16.67;;
28625;SDS011;18905;42.668;23.364;2023-06-05T07:34:13;27.02;;;16.67;;
28625;SDS011;18905;42.668;23.364;2023-06-05T07:36:40;27.77;;;16.67;;
28625;SDS011;18905;42.668;23.364;2023-06-05T07:39:05;27.60;;;16.60;;
28625;SDS011;18905;42.668;23.364;2023-06-05T07:41:30;25.58;;;15.65;;
28625;SDS011;18905;42.668;23.364;2023-06-05T07:43:56;22.25;;;14.88;;
28625;SDS011;18905;42.668;23.364;2023-06-05T07:46:22;21.40;;;14.85;;
28625;SDS011;18905;42.668;23.364;2023-06-05T07:48:47;24.30;;;15.60;;
28625;SDS011;18905;42.668;23.364;2023-06-05T07:51:12;27.38;;;16.05;;
28625;SDS011;18905;42.668;23.364;2023-06-05T07:53:38;27.05;;;16.17;;
28625;SDS011;18905;42.668;23.364;2023-06-05T07:56:03;24.38;;;14.73;;
28625;SDS011;18905;42.668;23.364;2023-06-05T07:58:29;21.27;;;13.85;;
28625;SDS011;18905;42.668;23.364;2023-06-05T08:00:54;26.60;;;14.70;;
28625;SDS011;18905;42.668;23.364;2023-06-05T08:03:22;28.85;;;14.98;;
28625;SDS011;18905;42.668;23.364;2023-06-05T08:05:48;22.10;;;14.93;;
28625;SDS011;18905;42.668;23.364;2023-06-05T08:08:15;19.00;;;13.75;;
28625;SDS011;18905;42.668;23.364;2023-06-05T08:10:41;20.40;;;14.43;;
28625;SDS011;18905;42.668;23.364;2023-06-05T08:13:09;23.55;;;14.18;;
28625;SDS011;18905;42.668;23.364;2023-06-05T08:15:35;18.38;;;12.75;;
28625;SDS011;18905;42.668;23.364;2023-06-05T08:18:00;21.30;;;13.98;;
28625;SDS011;18905;42.668;23.364;2023-06-05T08:20:26;20.85;;;13.80;;
28625;SDS011;18905;42.668;23.364;2023-06-05T08:22:51;21.67;;;13.40;;
28625;SDS011;18905;42.668;23.364;2023-06-05T08:25:17;22.02;;;14.00;;
28625;SDS011;18905;42.668;23.364;2023-06-05T08:27:43;20.15;;;12.65;;
28625;SDS011;18905;42.668;23.364;2023-06-05T08:30:08;17.73;;;11.60;;
28625;SDS011;18905;42.668;23.364;2023-06-05T08:32:34;19.92;;;14.38;;
28625;SDS011;18905;42.668;23.364;2023-06-05T08:34:59;19.20;;;14.00;;
28625;SDS011;18905;42.668;23.364;2023-06-05T08:37:25;22.00;;;12.35;;
28625;SDS011;18905;42.668;23.364;2023-06-05T08:39:50;19.15;;;11.63;;
28625;SDS011;18905;42.668;23.364;2023-06-05T08:42:16;18.85;;;12.48;;
28625;SDS011;18905;42.668;23.364;2023-06-05T08:44:46;20.75;;;12.70;;
28625;SDS011;18905;42.668;23.364;2023-06-05T08:47:14;17.10;;;11.68;;
28625;SDS011;18905;42.668;23.364;2023-06-05T08:49:40;18.67;;;12.90;;
28625;SDS011;18905;42.668;23.364;2023-06-05T08:52:07;17.00;;;11.85;;
28625;SDS011;18905;42.668;23.364;2023-06-05T08:54:39;18.90;;;11.93;;
28625;SDS011;18905;42.668;23.364;2023-06-05T08:57:06;17.23;;;11.80;;
28625;SDS011;18905;42.668;23.364;2023-06-05T08:59:33;17.67;;;11.70;;
28625;SDS011;18905;42.668;23.364;2023-06-05T09:01:59;17.10;;;11.93;;
28625;SDS011;18905;42.668;23.364;2023-06-05T09:04:25;20.42;;;12.27;;
28625;SDS011;18905;42.668;23.364;2023-06-05T09:07:01;16.02;;;11.07;;
28625;SDS011;18905;42.668;23.364;2023-06-05T09:09:27;16.92;;;11.30;;
28625;SDS011;18905;42.668;23.364;2023-06-05T09:12:07;21.30;;;12.27;;
28625;SDS011;18905;42.668;23.364;2023-06-05T09:14:34;16.05;;;11.43;;
28625;SDS011;18905;42.668;23.364;2023-06-05T09:17:01;18.63;;;11.95;;
28625;SDS011;18905;42.668;23.364;2023-06-05T09:19:37;17.98;;;11.68;;
28625;SDS011;18905;42.668;23.364;2023-06-05T09:22:08;15.63;;;10.68;;
28625;SDS011;18905;42.668;23.364;2023-06-05T09:24:34;16.63;;;10.05;;
28625;SDS011;18905;42.668;23.364;2023-06-05T09:27:02;16.45;;;10.48;;
28625;SDS011;18905;42.668;23.364;2023-06-05T09:29:34;15.18;;;10.52;;
28625;SDS011;18905;42.668;23.364;2023-06-05T09:32:02;15.82;;;10.00;;
28625;SDS011;18905;42.668;23.364;2023-06-05T09:34:33;20.58;;;10.68;;
28625;SDS011;18905;42.668;23.364;2023-06-05T09:37:01;19.65;;;10.07;;
28625;SDS011;18905;42.668;23.364;2023-06-05T09:39:31;14.32;;;9.60;;
28625;SDS011;18905;42.668;23.364;2023-06-05T09:41:58;19.83;;;9.80;;
28625;SDS011;18905;42.668;23.364;2023-06-05T09:44:25;16.90;;;10.55;;
28625;SDS011;18905;42.668;23.364;2023-06-05T09:49:31;14.00;;;8.63;;
28625;SDS011;18905;42.668;23.364;2023-06-05T09:52:11;20.63;;;9.50;;
28625;SDS011;18905;42.668;23.364;2023-06-05T09:54:38;12.38;;;9.48;;
28625;SDS011;18905;42.668;23.364;2023-06-05T09:57:07;15.07;;;10.43;;
28625;SDS011;18905;42.668;23.364;2023-06-05T09:59:57;16.80;;;10.88;;
28625;SDS011;18905;42.668;23.364;2023-06-05T10:02:28;22.33;;;13.32;;
28625;SDS011;18905;42.668;23.364;2023-06-05T10:05:01;20.15;;;13.00;;
28625;SDS011;18905;42.668;23.364;2023-06-05T10:07:29;25.45;;;11.18;;
28625;SDS011;18905;42.668;23.364;2023-06-05T10:09:56;17.45;;;10.85;;
28625;SDS011;18905;42.668;23.364;2023-06-05T10:12:22;19.25;;;11.48;;
28625;SDS011;18905;42.668;23.364;2023-06-05T10:14:49;15.27;;;11.32;;
28625;SDS011;18905;42.668;23.364;2023-06-05T10:17:14;18.80;;;12.10;;
28625;SDS011;18905;42.668;23.364;2023-06-05T10:19:43;21.42;;;12.20;;
28625;SDS011;18905;42.668;23.364;2023-06-05T10:22:09;18.13;;;11.32;;
28625;SDS011;18905;42.668;23.364;2023-06-05T10:24:37;19.88;;;11.48;;
28625;SDS011;18905;42.668;23.364;2023-06-05T10:40:08;16.65;;;9.98;;
28625;SDS011;18905;42.668;23.364;2023-06-05T10:42:35;15.77;;;11.13;;
28625;SDS011;18905;42.668;23.364;2023-06-05T10:45:01;19.55;;;11.73;;
28625;SDS011;18905;42.668;23.364;2023-06-05T10:52:45;18.23;;;11.65;;
28625;SDS011;18905;42.668;23.364;2023-06-05T10:55:11;17.98;;;13.00;;
28625;SDS011;18905;42.668;23.364;2023-06-05T11:00:35;24.13;;;15.00;;
28625;SDS011;18905;42.668;23.364;2023-06-05T11:06:26;21.92;;;13.40;;
28625;SDS011;18905;42.668;23.364;2023-06-05T11:09:11;18.40;;;12.95;;
28625;SDS011;18905;42.668;23.364;2023-06-05T11:11:54;21.25;;;13.27;;
28625;SDS011;18905;42.668;23.364;2023-06-05T11:14:21;16.25;;;10.05;;
28625;SDS011;18905;42.668;23.364;2023-06-05T11:16:46;13.05;;;8.40;;
28625;SDS011;18905;42.668;23.364;2023-06-05T11:29:22;11.37;;;8.60;;
28625;SDS011;18905;42.668;23.364;2023-06-05T11:31:50;13.88;;;10.15;;
28625;SDS011;18905;42.668;23.364;2023-06-05T11:34:16;14.15;;;9.40;;
28625;SDS011;18905;42.668;23.364;2023-06-05T11:36:41;13.95;;;9.00;;
28625;SDS011;18905;42.668;23.364;2023-06-05T11:39:07;13.15;;;9.93;;
28625;SDS011;18905;42.668;23.364;2023-06-05T11:41:33;17.40;;;9.63;;
28625;SDS011;18905;42.668;23.364;2023-06-05T11:43:58;14.18;;;9.70;;
28625;SDS011;18905;42.668;23.364;2023-06-05T11:46:40;16.90;;;9.80;;
28625;SDS011;18905;42.668;23.364;2023-06-05T11:49:22;20.80;;;10.27;;
28625;SDS011;18905;42.668;23.364;2023-06-05T11:51:52;15.57;;;9.65;;
28625;SDS011;18905;42.668;23.364;2023-06-05T11:54:25;12.23;;;8.93;;
28625;SDS011;18905;42.668;23.364;2023-06-05T11:57:02;12.48;;;8.57;;
28625;SDS011;18905;42.668;23.364;2023-06-05T11:59:36;15.05;;;8.57;;
28625;SDS011;18905;42.668;23.364;2023-06-05T12:02:02;13.35;;;7.93;;
28625;SDS011;18905;42.668;23.364;2023-06-05T12:04:29;14.88;;;8.57;;
28625;SDS011;18905;42.668;23.364;2023-06-05T12:06:59;9.75;;;7.43;;
28625;SDS011;18905;42.668;23.364;2023-06-05T12:09:26;15.80;;;7.43;;
28625;SDS011;18905;42.668;23.364;2023-06-05T12:11:52;16.92;;;8.63;;
28625;SDS011;18905;42.668;23.364;2023-06-05T12:16:52;10.63;;;6.90;;
28625;SDS011;18905;42.668;23.364;2023-06-05T12:19:18;11.85;;;7.40;;
28625;SDS011;18905;42.668;23.364;2023-06-05T12:21:44;9.77;;;6.53;;
28625;SDS011;18905;42.668;23.364;2023-06-05T12:24:11;8.73;;;6.35;;
28625;SDS011;18905;42.668;23.364;2023-06-05T12:32:01;8.50;;;6.22;;
28625;SDS011;18905;42.668;23.364;2023-06-05T13:53:56;13.23;;;5.95;;
28625;SDS011;18905;42.668;23.364;2023-06-05T13:56:22;8.05;;;4.57;;
28625;SDS011;18905;42.668;23.364;2023-06-05T13:58:48;6.88;;;5.22;;
28625;SDS011;18905;42.668;23.364;2023-06-05T14:01:13;8.73;;;5.70;;
28625;SDS011;18905;42.668;23.364;2023-06-05T14:03:39;8.77;;;5.35;;
28625;SDS011;18905;42.668;23.364;2023-06-05T14:06:05;9.45;;;5.07;;
28625;SDS011;18905;42.668;23.364;2023-06-05T14:08:31;7.47;;;4.97;;
28625;SDS011;18905;42.668;23.364;2023-06-05T14:10:58;9.18;;;4.93;;
28625;SDS011;18905;42.668;23.364;2023-06-05T14:13:24;11.18;;;6.45;;
28625;SDS011;18905;42.668;23.364;2023-06-05T14:15:49;7.53;;;4.57;;
28625;SDS011;18905;42.668;23.364;2023-06-05T14:18:15;7.47;;;5.20;;
28625;SDS011;18905;42.668;23.364;2023-06-05T14:20:41;9.20;;;6.13;;
28625;SDS011;18905;42.668;23.364;2023-06-05T14:23:06;13.05;;;6.20;;
28625;SDS011;18905;42.668;23.364;2023-06-05T14:25:32;10.05;;;6.22;;
28625;SDS011;18905;42.668;23.364;2023-06-05T14:27:57;7.15;;;5.68;;
28625;SDS011;18905;42.668;23.364;2023-06-05T14:30:23;9.60;;;6.32;;
28625;SDS011;18905;42.668;23.364;2023-06-05T14:32:49;13.02;;;5.65;;
28625;SDS011;18905;42.668;23.364;2023-06-05T14:35:15;13.88;;;5.20;;
28625;SDS011;18905;42.668;23.364;2023-06-05T14:37:41;8.50;;;5.47;;
28625;SDS011;18905;42.668;23.364;2023-06-05T14:40:07;11.73;;;7.28;;
28625;SDS011;18905;42.668;23.364;2023-06-05T14:42:33;10.77;;;6.15;;
28625;SDS011;18905;42.668;23.364;2023-06-05T14:44:59;10.60;;;5.75;;
28625;SDS011;18905;42.668;23.364;2023-06-05T14:47:24;8.07;;;5.80;;
28625;SDS011;18905;42.668;23.364;2023-06-05T14:49:49;9.90;;;6.18;;
28625;SDS011;18905;42.668;23.364;2023-06-05T14:52:15;9.70;;;5.07;;
28625;SDS011;18905;42.668;23.364;2023-06-05T14:54:40;10.77;;;5.97;;
28625;SDS011;18905;42.668;23.364;2023-06-05T14:57:06;11.43;;;6.18;;
28625;SDS011;18905;42.668;23.364;2023-06-05T14:59:32;13.15;;;5.65;;
28625;SDS011;18905;42.668;23.364;2023-06-05T15:01:57;14.15;;;5.93;;
28625;SDS011;18905;42.668;23.364;2023-06-05T15:04:24;6.93;;;5.95;;
28625;SDS011;18905;42.668;23.364;2023-06-05T15:06:50;8.32;;;6.43;;
28625;SDS011;18905;42.668;23.364;2023-06-05T15:09:18;8.40;;;5.78;;
28625;SDS011;18905;42.668;23.364;2023-06-05T15:11:44;8.55;;;5.40;;
28625;SDS011;18905;42.668;23.364;2023-06-05T15:14:09;9.98;;;5.90;;
28625;SDS011;18905;42.668;23.364;2023-06-05T15:16:35;11.10;;;6.28;;
28625;SDS011;18905;42.668;23.364;2023-06-05T15:19:00;12.77;;;6.57;;
28625;SDS011;18905;42.668;23.364;2023-06-05T15:21:25;14.20;;;6.35;;
28625;SDS011;18905;42.668;23.364;2023-06-05T15:23:51;13.65;;;6.05;;
28625;SDS011;18905;42.668;23.364;2023-06-05T15:26:16;8.32;;;6.13;;
28625;SDS011;18905;42.668;23.364;2023-06-05T15:28:42;13.68;;;6.25;;
28625;SDS011;18905;42.668;23.364;2023-06-05T15:31:07;9.70;;;6.13;;
28625;SDS011;18905;42.668;23.364;2023-06-05T15:33:32;12.82;;;6.47;;
28625;SDS011;18905;42.668;23.364;2023-06-05T15:35:58;8.82;;;5.55;;
28625;SDS011;18905;42.668;23.364;2023-06-05T15:38:23;8.93;;;5.85;;
28625;SDS011;18905;42.668;23.364;2023-06-05T15:40:49;8.15;;;5.93;;
28625;SDS011;18905;42.668;23.364;2023-06-05T15:43:15;11.52;;;5.28;;
28625;SDS011;18905;42.668;23.364;2023-06-05T15:45:41;8.65;;;5.95;;
28625;SDS011;18905;42.668;23.364;2023-06-05T15:48:07;23.25;;;16.85;;
28625;SDS011;18905;42.668;23.364;2023-06-05T15:50:33;10.02;;;5.45;;
28625;SDS011;18905;42.668;23.364;2023-06-05T15:52:59;10.70;;;5.20;;
28625;SDS011;18905;42.668;23.364;2023-06-05T15:55:25;7.75;;;5.70;;
28625;SDS011;18905;42.668;23.364;2023-06-05T15:57:50;8.18;;;5.68;;
28625;SDS011;18905;42.668;23.364;2023-06-05T16:00:17;7.70;;;5.60;;
28625;SDS011;18905;42.668;23.364;2023-06-05T16:02:43;10.82;;;5.03;;
28625;SDS011;18905;42.668;23.364;2023-06-05T16:05:10;16.13;;;11.25;;
28625;SDS011;18905;42.668;23.364;2023-06-05T16:07:35;11.70;;;5.85;;
28625;SDS011;18905;42.668;23.364;2023-06-05T16:10:01;9.57;;;5.90;;
28625;SDS011;18905;42.668;23.364;2023-06-05T16:12:26;10.13;;;6.50;;
28625;SDS011;18905;42.668;23.364;2023-06-05T16:14:52;11.13;;;6.68;;
28625;SDS011;18905;42.668;23.364;2023-06-05T16:17:18;10.32;;;6.57;;
28625;SDS011;18905;42.668;23.364;2023-06-05T16:19:44;11.38;;;6.22;;
28625;SDS011;18905;42.668;23.364;2023-06-05T16:22:09;12.70;;;6.35;;